Time;durP1;ratioP1;P1;durP2;ratioP2;P2;SDS_P1;SDS_P2;PMS_P1;PMS_P2;Temp;Humidity;BMP_temperature;BMP_pressure;BME280_temperature;BME280_humidity;BME280_pressure;Samples;Min_cycle;Max_cycle;Signal;HPM_P1;HPM_P2
2021/12/23 00:01:43;;;;;;;77.10;32.10;;;0.40;99.90;;;;;;5020822;28;20072;-58
2021/12/23 00:04:10;;;;;;;80.97;34.58;;;0.40;99.90;;;;;;5021421;28;20041;-58
2021/12/23 00:06:37;;;;;;;62.53;24.27;;;0.40;99.90;;;;;;5031543;28;20044;-58
2021/12/23 00:09:04;;;;;;;80.65;33.75;;;0.50;99.90;;;;;;5031443;28;20390;-58
2021/12/23 00:11:30;;;;;;;76.68;31.83;;;0.50;99.90;;;;;;5031269;28;20532;-58
2021/12/23 00:14:02;;;;;;;78.30;30.88;;;0.40;99.90;;;;;;5030869;28;20030;-58
2021/12/23 00:16:41;;;;;;;73.10;29.75;;;0.40;99.90;;;;;;5029726;28;20023;-58
2021/12/23 00:19:20;;;;;;;79.00;32.38;;;0.40;99.90;;;;;;5030652;28;20044;-58
2021/12/23 00:24:30;;;;;;;78.00;30.40;;;0.40;99.90;;;;;;5030616;28;20560;-58
2021/12/23 00:26:55;;;;;;;76.82;31.42;;;0.30;99.90;;;;;;5030909;28;20079;-58
2021/12/23 00:29:21;;;;;;;80.10;34.60;;;0.30;99.90;;;;;;5030181;28;20483;-58
2021/12/23 00:31:47;;;;;;;79.72;31.00;;;0.20;99.90;;;;;;5023722;28;20018;-58
2021/12/23 00:34:12;;;;;;;76.13;29.67;;;0.30;99.90;;;;;;5017972;28;20023;-58
2021/12/23 00:36:41;;;;;;;78.10;30.63;;;0.30;99.90;;;;;;5026469;28;20017;-58
2021/12/23 00:39:08;;;;;;;75.97;30.38;;;0.30;99.90;;;;;;5030605;28;20021;-58
2021/12/23 00:41:34;;;;;;;78.03;33.80;;;0.30;99.90;;;;;;5030749;28;20030;-58
2021/12/23 00:44:00;;;;;;;81.57;31.65;;;0.30;99.90;;;;;;5031139;28;20024;-58
2021/12/23 00:46:26;;;;;;;84.20;35.03;;;0.50;99.90;;;;;;5030760;28;20037;-58
2021/12/23 00:48:51;;;;;;;82.60;35.85;;;0.50;99.90;;;;;;5031254;28;20021;-58
2021/12/23 00:51:19;;;;;;;71.88;30.92;;;0.50;99.90;;;;;;5030818;28;20055;-58
2021/12/23 00:53:47;;;;;;;76.38;33.35;;;0.50;99.90;;;;;;5030964;28;20111;-58
2021/12/23 00:56:13;;;;;;;63.83;26.30;;;0.50;99.90;;;;;;5029106;28;20028;-58
2021/12/23 00:58:39;;;;;;;79.05;31.70;;;0.60;99.90;;;;;;5028217;28;20029;-58
2021/12/23 01:01:05;;;;;;;62.97;24.00;;;0.60;99.90;;;;;;5021997;28;20060;-58
2021/12/23 01:03:31;;;;;;;75.00;31.92;;;0.60;99.90;;;;;;5030999;28;20087;-58
2021/12/23 01:05:57;;;;;;;75.38;30.30;;;0.50;99.90;;;;;;5030569;28;20029;-58
2021/12/23 01:08:23;;;;;;;69.40;28.40;;;0.60;99.90;;;;;;5031220;28;20026;-58
2021/12/23 01:10:54;;;;;;;71.28;30.25;;;0.60;99.90;;;;;;5030344;28;20026;-58
2021/12/23 01:13:24;;;;;;;77.20;33.25;;;0.60;99.90;;;;;;5028911;28;20028;-58
2021/12/23 01:16:00;;;;;;;73.75;30.90;;;0.60;99.90;;;;;;5030107;28;20446;-58
2021/12/23 01:18:30;;;;;;;73.97;30.98;;;0.50;99.90;;;;;;5029266;28;20451;-58
2021/12/23 01:21:04;;;;;;;78.95;33.95;;;0.50;99.90;;;;;;5030572;28;20044;-58
2021/12/23 01:23:31;;;;;;;76.63;30.38;;;0.60;99.90;;;;;;5031067;28;20117;-58
2021/12/23 01:25:57;;;;;;;72.57;31.70;;;0.60;99.90;;;;;;5030503;28;20517;-58
2021/12/23 01:28:23;;;;;;;77.30;33.20;;;0.60;99.90;;;;;;5033305;28;20049;-58
2021/12/23 01:30:49;;;;;;;76.82;33.20;;;0.60;99.90;;;;;;5033958;28;20032;-58
2021/12/23 01:33:15;;;;;;;73.68;31.10;;;0.60;99.90;;;;;;5034439;28;20033;-58
2021/12/23 01:35:41;;;;;;;74.68;30.77;;;0.60;99.90;;;;;;5034645;28;20052;-58
2021/12/23 01:38:08;;;;;;;83.05;32.30;;;0.60;99.90;;;;;;5034574;28;20502;-58
2021/12/23 01:40:34;;;;;;;72.07;29.05;;;0.60;99.90;;;;;;5034531;28;20489;-58
2021/12/23 01:43:00;;;;;;;77.65;33.92;;;0.60;99.90;;;;;;5034434;28;20035;-58
2021/12/23 01:45:29;;;;;;;73.10;32.50;;;0.60;99.90;;;;;;5033900;28;20048;-58
2021/12/23 01:47:56;;;;;;;73.32;32.63;;;0.60;99.90;;;;;;5034142;28;20037;-58
2021/12/23 01:50:27;;;;;;;72.28;31.52;;;0.70;99.90;;;;;;5033999;28;20036;-58
2021/12/23 01:52:56;;;;;;;76.97;32.38;;;0.60;99.90;;;;;;5032506;28;20499;-58
2021/12/23 01:55:22;;;;;;;79.00;31.85;;;0.60;99.90;;;;;;5024376;28;20133;-58
2021/12/23 01:57:49;;;;;;;82.30;33.78;;;0.60;99.90;;;;;;5021829;28;20324;-58
2021/12/23 02:00:17;;;;;;;78.55;34.00;;;0.60;99.90;;;;;;5033814;28;20029;-58
2021/12/23 02:02:43;;;;;;;77.15;30.38;;;0.60;99.90;;;;;;5032940;28;20072;-58
2021/12/23 02:05:10;;;;;;;71.13;29.05;;;0.70;99.90;;;;;;5033672;28;20038;-58
2021/12/23 02:07:36;;;;;;;79.25;33.95;;;0.70;99.90;;;;;;5032872;28;20033;-58
2021/12/23 02:10:05;;;;;;;70.25;29.58;;;0.70;99.90;;;;;;5034077;28;20040;-58
2021/12/23 02:12:31;;;;;;;79.82;34.13;;;0.70;99.90;;;;;;5033580;28;20041;-58
2021/12/23 02:14:56;;;;;;;75.72;30.58;;;0.60;99.90;;;;;;5034435;28;20022;-58
2021/12/23 02:17:22;;;;;;;67.32;27.30;;;0.70;99.90;;;;;;5031107;28;20048;-58
2021/12/23 02:19:52;;;;;;;80.82;34.40;;;0.70;99.90;;;;;;5031944;28;20368;-58
2021/12/23 02:22:17;;;;;;;70.57;30.50;;;0.70;99.90;;;;;;5032850;28;20060;-58
2021/12/23 02:24:43;;;;;;;74.13;30.15;;;0.70;99.90;;;;;;5032223;28;20069;-58
2021/12/23 02:27:10;;;;;;;73.00;32.67;;;0.70;99.90;;;;;;5033345;28;20470;-58
2021/12/23 02:29:35;;;;;;;76.30;33.78;;;0.70;99.90;;;;;;5032837;28;20415;-58
2021/12/23 02:32:01;;;;;;;79.35;29.90;;;0.60;99.90;;;;;;5032650;28;20026;-58
2021/12/23 02:34:27;;;;;;;61.13;23.52;;;0.70;99.90;;;;;;5032003;28;20560;-58
2021/12/23 02:36:55;;;;;;;79.88;32.95;;;0.70;99.90;;;;;;5033225;28;20462;-58
2021/12/23 02:39:23;;;;;;;80.60;30.45;;;0.70;99.90;;;;;;5032160;28;20482;-58
2021/12/23 02:41:49;;;;;;;79.95;33.13;;;0.60;99.90;;;;;;5033562;28;20028;-58
2021/12/23 02:44:16;;;;;;;75.75;31.25;;;0.60;99.90;;;;;;5033717;28;20030;-58
2021/12/23 02:46:42;;;;;;;72.05;28.17;;;0.50;99.90;;;;;;5031201;28;20022;-58
2021/12/23 02:49:08;;;;;;;77.80;32.45;;;0.50;99.90;;;;;;5021870;28;20018;-58
2021/12/23 02:51:34;;;;;;;81.35;32.88;;;0.50;99.90;;;;;;5022568;28;20021;-58
2021/12/23 02:54:00;;;;;;;83.05;34.28;;;0.50;99.90;;;;;;5033048;28;20084;-58
2021/12/23 02:56:26;;;;;;;72.28;26.63;;;0.50;99.90;;;;;;5032200;28;20025;-58
2021/12/23 02:58:52;;;;;;;82.63;33.75;;;0.50;99.90;;;;;;5032589;28;20029;-58
2021/12/23 03:01:20;;;;;;;77.75;27.83;;;0.50;99.90;;;;;;5032930;28;20017;-58
2021/12/23 03:03:46;;;;;;;75.43;29.92;;;0.50;99.90;;;;;;5032755;28;20108;-58
2021/12/23 03:06:12;;;;;;;72.80;29.13;;;0.50;99.90;;;;;;5031988;28;20132;-58
2021/12/23 03:08:45;;;;;;;77.72;29.58;;;0.50;99.90;;;;;;5032727;28;20025;-58
2021/12/23 03:11:11;;;;;;;;;;;0.50;99.90;;;;;;5032876;28;20037;-58
2021/12/23 03:13:38;;;;;;;66.60;23.90;;;0.50;99.90;;;;;;5032483;28;20039;-58
2021/12/23 03:16:05;;;;;;;76.30;29.90;;;0.50;99.90;;;;;;5031186;28;20262;-58
2021/12/23 03:18:31;;;;;;;81.10;28.77;;;0.50;99.90;;;;;;5033248;28;20074;-58
2021/12/23 03:20:57;;;;;;;85.47;33.85;;;0.50;99.90;;;;;;5020415;28;20068;-58
2021/12/23 03:23:24;;;;;;;79.93;31.45;;;0.50;99.90;;;;;;5032422;28;20458;-58
2021/12/23 03:25:50;;;;;;;84.22;33.15;;;0.50;99.90;;;;;;5031784;28;20057;-58
2021/12/23 03:28:16;;;;;;;77.25;31.25;;;0.50;99.90;;;;;;5031730;28;20044;-58
2021/12/23 03:30:42;;;;;;;75.50;30.77;;;0.50;99.90;;;;;;5032379;28;20108;-58
2021/12/23 03:33:08;;;;;;;69.82;26.83;;;0.50;99.90;;;;;;5032269;28;20059;-58
2021/12/23 03:35:34;;;;;;;78.05;32.25;;;0.50;99.90;;;;;;5032322;28;20029;-58
2021/12/23 03:38:00;;;;;;;85.20;32.88;;;0.50;99.90;;;;;;5031289;28;20017;-58
2021/12/23 03:40:26;;;;;;;78.70;32.13;;;0.50;99.90;;;;;;5031431;28;20025;-58
2021/12/23 03:42:51;;;;;;;80.90;32.42;;;0.50;99.90;;;;;;5032278;28;20061;-58
2021/12/23 03:45:17;;;;;;;78.05;33.17;;;0.50;99.90;;;;;;5031370;28;20079;-58
2021/12/23 03:47:45;;;;;;;79.63;31.67;;;0.50;99.90;;;;;;5031976;28;20060;-59
2021/12/23 03:50:11;;;;;;;80.05;33.22;;;0.50;99.90;;;;;;5031100;28;20024;-58
2021/12/23 03:52:36;;;;;;;80.32;33.58;;;0.50;99.90;;;;;;5031648;28;20025;-58
2021/12/23 03:55:03;;;;;;;82.97;32.42;;;0.50;99.90;;;;;;5032145;28;20037;-58
2021/12/23 03:57:28;;;;;;;83.75;33.70;;;0.50;99.90;;;;;;5031917;28;20029;-58
2021/12/23 03:59:54;;;;;;;83.45;31.88;;;0.50;99.90;;;;;;5030468;28;20024;-58
2021/12/23 04:02:20;;;;;;;77.57;33.20;;;0.50;99.90;;;;;;5032454;28;20024;-58
2021/12/23 04:04:45;;;;;;;87.00;31.88;;;0.50;99.90;;;;;;5025962;28;20018;-58
2021/12/23 04:07:11;;;;;;;83.60;32.53;;;0.40;99.90;;;;;;5024759;28;20028;-58
2021/12/23 04:09:36;;;;;;;77.72;31.75;;;0.40;99.90;;;;;;5031030;28;20036;-58
2021/12/23 04:12:02;;;;;;;84.22;33.10;;;0.40;99.90;;;;;;5029598;28;20048;-58
2021/12/23 04:14:28;;;;;;;76.60;28.38;;;0.40;99.90;;;;;;5031279;28;20417;-58
2021/12/23 04:16:54;;;;;;;73.93;30.17;;;0.40;99.90;;;;;;5029559;28;20025;-58
2021/12/23 04:19:19;;;;;;;76.10;26.45;;;0.40;99.90;;;;;;5030667;28;20045;-58
2021/12/23 04:21:45;;;;;;;77.63;31.13;;;0.40;99.90;;;;;;5029590;28;20071;-58
2021/12/23 04:24:11;;;;;;;70.30;27.00;;;0.50;99.90;;;;;;5031272;28;20406;-58
2021/12/23 04:26:39;;;;;;;78.53;32.05;;;0.50;99.90;;;;;;5029432;28;20508;-58
2021/12/23 04:29:05;;;;;;;83.65;31.88;;;0.50;99.90;;;;;;5030815;28;20036;-58
2021/12/23 04:31:31;;;;;;;84.50;31.90;;;0.50;99.90;;;;;;5031201;28;20029;-58
2021/12/23 04:33:57;;;;;;;86.63;33.70;;;0.50;99.90;;;;;;5031050;28;20026;-58
2021/12/23 04:36:27;;;;;;;76.28;28.30;;;0.50;99.90;;;;;;5031150;28;20029;-58
2021/12/23 04:38:53;;;;;;;82.88;32.00;;;0.50;99.90;;;;;;5029274;28;20301;-60
2021/12/23 04:41:19;;;;;;;81.63;33.13;;;0.60;99.90;;;;;;5030898;28;20018;-58
2021/12/23 04:43:45;;;;;;;77.18;28.55;;;0.50;99.90;;;;;;5027108;28;20041;-58
2021/12/23 04:46:11;;;;;;;75.53;29.73;;;0.60;99.90;;;;;;5018530;28;20033;-58
2021/12/23 04:48:39;;;;;;;75.28;27.40;;;0.60;99.90;;;;;;5023286;28;20390;-58
2021/12/23 04:51:05;;;;;;;79.13;33.05;;;0.60;99.90;;;;;;5030501;28;20514;-58
2021/12/23 04:53:31;;;;;;;70.88;27.70;;;0.70;99.90;;;;;;5030986;28;20056;-58
2021/12/23 04:55:57;;;;;;;72.10;30.27;;;0.70;99.90;;;;;;5030786;28;20057;-58
2021/12/23 04:58:22;;;;;;;74.28;31.25;;;0.70;99.90;;;;;;5030626;28;20056;-58
2021/12/23 05:00:49;;;;;;;71.63;27.48;;;0.70;99.90;;;;;;5030329;28;20014;-58
2021/12/23 05:03:20;;;;;;;67.63;25.73;;;0.80;99.90;;;;;;5033581;28;20028;-58
2021/12/23 05:05:46;;;;;;;76.60;30.02;;;0.80;99.90;;;;;;5035250;28;20371;-58
2021/12/23 05:08:13;;;;;;;76.78;30.45;;;0.80;99.90;;;;;;5034414;28;20045;-58
2021/12/23 05:10:40;;;;;;;73.78;29.20;;;0.80;99.90;;;;;;5034835;28;20086;-58
2021/12/23 05:13:06;;;;;;;67.03;27.50;;;0.90;99.90;;;;;;5033303;28;20025;-58
2021/12/23 05:15:32;;;;;;;74.13;30.33;;;0.90;99.90;;;;;;5023647;28;20033;-58
2021/12/23 05:17:58;;;;;;;76.65;30.33;;;0.80;99.90;;;;;;5034361;28;20033;-58
2021/12/23 05:20:24;;;;;;;71.97;27.20;;;0.90;99.90;;;;;;5034229;28;20092;-58
2021/12/23 05:22:50;;;;;;;77.05;31.98;;;0.90;99.90;;;;;;5034363;28;20025;-58
2021/12/23 05:25:17;;;;;;;77.88;30.35;;;0.90;99.90;;;;;;5034826;28;20041;-58
2021/12/23 05:27:44;;;;;;;75.30;29.25;;;0.80;99.90;;;;;;5034372;28;20087;-58
2021/12/23 05:30:12;;;;;;;77.85;31.13;;;0.90;99.90;;;;;;5034467;28;20051;-58
2021/12/23 05:32:38;;;;;;;76.07;30.73;;;0.90;99.90;;;;;;5034178;28;20495;-58
2021/12/23 05:35:05;;;;;;;77.22;31.50;;;0.90;99.90;;;;;;5033809;28;20390;-59
2021/12/23 05:37:31;;;;;;;66.78;25.90;;;0.90;99.90;;;;;;5034397;28;20075;-58
2021/12/23 05:39:57;;;;;;;77.95;31.80;;;0.90;99.90;;;;;;5032796;28;20025;-58
2021/12/23 05:42:22;;;;;;;86.80;33.13;;;0.90;99.90;;;;;;5033430;28;20061;-58
2021/12/23 05:44:48;;;;;;;76.20;30.52;;;0.90;99.90;;;;;;5027115;28;20025;-58
2021/12/23 05:47:14;;;;;;;75.53;29.65;;;0.90;99.90;;;;;;5019981;28;20526;-58
2021/12/23 05:49:39;;;;;;;80.25;32.72;;;1.00;99.90;;;;;;5031356;28;20025;-58
2021/12/23 05:52:05;;;;;;;77.03;30.65;;;1.00;99.90;;;;;;5032648;28;20025;-58
2021/12/23 05:54:31;;;;;;;75.43;32.10;;;1.00;99.90;;;;;;5034056;28;20382;-58
2021/12/23 05:57:01;;;;;;;76.03;31.48;;;1.10;99.90;;;;;;5034011;28;20161;-58
2021/12/23 05:59:29;;;;;;;75.13;32.13;;;1.10;99.90;;;;;;5033807;28;20399;-58
2021/12/23 06:01:54;;;;;;;75.88;30.55;;;1.10;99.90;;;;;;5033782;28;20461;-58
2021/12/23 06:04:20;;;;;;;73.10;31.58;;;1.20;99.90;;;;;;5032271;28;20101;-58
2021/12/23 06:06:45;;;;;;;72.93;26.42;;;1.10;99.90;;;;;;5034018;28;20116;-58
2021/12/23 06:09:11;;;;;;;76.90;33.03;;;1.10;99.90;;;;;;5028410;28;20526;-58
2021/12/23 06:11:36;;;;;;;69.07;29.92;;;1.20;99.90;;;;;;5022519;28;20069;-58
2021/12/23 06:14:02;;;;;;;74.75;32.50;;;1.20;99.90;;;;;;5025445;28;20036;-58
2021/12/23 06:16:28;;;;;;;71.13;29.27;;;1.20;99.90;;;;;;5033957;28;20022;-58
2021/12/23 06:18:53;;;;;;;74.70;29.45;;;1.30;99.90;;;;;;5034108;28;20524;-58
2021/12/23 06:21:20;;;;;;;73.95;32.92;;;1.30;99.90;;;;;;5032070;28;20048;-58
2021/12/23 06:23:46;;;;;;;73.60;30.70;;;1.30;99.90;;;;;;5033058;28;20095;-58
2021/12/23 06:26:12;;;;;;;67.28;29.25;;;1.30;99.90;;;;;;5033175;28;20518;-58
2021/12/23 06:28:38;;;;;;;68.85;30.05;;;1.30;99.90;;;;;;5031559;28;20034;-58
2021/12/23 06:31:04;;;;;;;68.90;30.30;;;1.30;99.90;;;;;;5032909;28;20072;-58
2021/12/23 06:33:29;;;;;;;67.72;30.63;;;1.40;99.90;;;;;;5033144;28;20029;-58
2021/12/23 06:35:55;;;;;;;70.60;29.80;;;1.40;99.90;;;;;;5033190;28;20098;-58
2021/12/23 06:38:20;;;;;;;70.45;30.40;;;1.30;99.90;;;;;;5032764;28;20077;-58
2021/12/23 06:40:46;;;;;;;70.47;30.60;;;1.40;99.90;;;;;;5032812;28;20028;-58
2021/12/23 06:43:12;;;;;;;74.38;31.60;;;1.40;99.90;;;;;;5033177;28;20402;-58
2021/12/23 06:45:37;;;;;;;71.63;32.15;;;1.50;99.90;;;;;;5033322;28;20071;-58
2021/12/23 06:48:03;;;;;;;67.00;30.17;;;1.50;99.90;;;;;;5027061;28;20033;-58
2021/12/23 06:50:29;;;;;;;73.35;31.38;;;1.50;99.90;;;;;;5018303;28;20625;-58
2021/12/23 06:52:55;;;;;;;74.30;30.60;;;1.50;99.90;;;;;;5029619;28;20026;-58
2021/12/23 06:55:21;;;;;;;71.20;32.22;;;1.50;99.90;;;;;;5032742;28;20369;-58
2021/12/23 06:57:53;;;;;;;74.68;31.58;;;1.50;99.90;;;;;;5032766;28;20025;-58
2021/12/23 07:00:18;;;;;;;72.90;30.40;;;1.50;99.90;;;;;;5031070;28;20437;-58
2021/12/23 07:02:45;;;;;;;73.63;29.75;;;1.50;99.90;;;;;;5032674;28;20049;-58
2021/12/23 07:05:11;;;;;;;75.97;31.73;;;1.50;99.90;;;;;;5032891;28;20051;-58
2021/12/23 07:08:13;;;;;;;71.90;29.15;;;1.50;99.90;;;;;;5032116;28;20073;-58
2021/12/23 07:10:30;;;;;;;75.38;32.38;;;1.50;99.90;;;;;;5032157;28;20069;-58
2021/12/23 07:12:57;;;;;;;68.47;30.00;;;1.60;99.90;;;;;;5030957;28;20087;-58
2021/12/23 07:15:24;;;;;;;68.00;30.80;;;1.60;99.90;;;;;;5033216;28;20075;-58
2021/12/23 07:17:52;;;;;;;71.75;31.33;;;1.60;99.90;;;;;;5029107;28;20018;-58
2021/12/23 07:20:17;;;;;;;68.93;29.60;;;1.60;99.90;;;;;;5025171;28;20029;-57
2021/12/23 07:22:43;;;;;;;65.68;27.52;;;1.60;99.90;;;;;;5032437;28;20028;-59
2021/12/23 07:25:09;;;;;;;68.45;29.90;;;1.70;99.90;;;;;;5031072;28;20418;-58
2021/12/23 07:27:35;;;;;;;70.97;29.27;;;1.70;99.90;;;;;;5032109;28;20034;-58
2021/12/23 07:30:02;;;;;;;66.03;28.50;;;1.70;99.90;;;;;;5032098;28;20029;-58
2021/12/23 07:32:28;;;;;;;68.80;31.58;;;1.60;99.90;;;;;;5031864;28;20030;-58
2021/12/23 07:34:54;;;;;;;68.53;31.05;;;1.70;99.90;;;;;;5032373;28;20022;-58
2021/12/23 07:37:20;;;;;;;72.82;32.10;;;1.70;99.90;;;;;;5031951;28;20029;-58
2021/12/23 07:39:47;;;;;;;68.18;30.05;;;1.70;99.90;;;;;;5031737;28;20018;-58
2021/12/23 07:42:15;;;;;;;70.18;31.02;;;1.70;99.90;;;;;;5023035;28;20029;-58
2021/12/23 07:44:42;;;;;;;65.65;31.25;;;1.80;99.90;;;;;;5018769;28;20036;-58
2021/12/23 07:47:08;;;;;;;65.85;29.98;;;1.80;99.90;;;;;;5032036;28;20041;-58
2021/12/23 07:49:34;;;;;;;65.85;30.38;;;1.90;99.90;;;;;;5032013;28;20501;-58
2021/12/23 07:52:00;;;;;;;59.47;26.83;;;2.00;99.90;;;;;;5030673;28;20041;-58
2021/12/23 07:54:25;;;;;;;64.18;30.33;;;2.00;99.90;;;;;;5027878;28;20116;-58
2021/12/23 07:56:51;;;;;;;62.50;29.23;;;2.10;99.90;;;;;;5018711;28;20029;-58
2021/12/23 07:59:17;;;;;;;70.03;30.60;;;2.10;99.90;;;;;;5010670;28;20021;-58
2021/12/23 08:01:42;;;;;;;59.50;28.30;;;2.10;99.90;;;;;;5013187;28;20418;-58
2021/12/23 08:04:08;;;;;;;61.72;28.95;;;2.10;99.90;;;;;;5014799;28;20084;-58
2021/12/23 08:06:34;;;;;;;65.05;27.77;;;2.20;99.90;;;;;;5027809;28;20095;-58
2021/12/23 08:08:59;;;;;;;60.30;28.08;;;2.20;99.90;;;;;;5028003;28;20029;-58
2021/12/23 08:11:25;;;;;;;64.70;28.77;;;2.20;99.90;;;;;;5011135;28;20133;-58
2021/12/23 08:13:51;;;;;;;60.17;28.40;;;2.20;99.90;;;;;;5024832;28;20120;-58
2021/12/23 08:16:16;;;;;;;64.32;29.75;;;2.20;99.90;;;;;;5017375;28;20056;-58
2021/12/23 08:18:42;;;;;;;58.17;28.05;;;2.20;99.90;;;;;;5011275;28;20022;-58
2021/12/23 08:21:08;;;;;;;61.00;29.15;;;2.20;99.90;;;;;;5011497;28;20021;-58
2021/12/23 08:23:33;;;;;;;50.75;21.70;;;2.20;99.90;;;;;;5012215;28;20022;-58
2021/12/23 08:26:03;;;;;;;57.75;26.70;;;2.10;99.90;;;;;;5011359;28;20455;-58
2021/12/23 08:28:29;;;;;;;55.25;24.70;;;2.30;99.90;;;;;;5011232;28;20030;-58
2021/12/23 08:30:55;;;;;;;66.07;29.20;;;2.20;99.90;;;;;;5027195;28;20486;-58
2021/12/23 08:33:20;;;;;;;57.70;25.35;;;2.30;99.90;;;;;;5017754;28;20215;-58
2021/12/23 08:35:46;;;;;;;63.53;28.42;;;2.20;99.90;;;;;;5016568;28;20029;-58
2021/12/23 08:38:12;;;;;;;58.40;24.45;;;2.30;99.90;;;;;;5026951;28;20029;-58
2021/12/23 08:40:38;;;;;;;59.35;26.08;;;2.30;99.90;;;;;;5031327;28;20080;-58
2021/12/23 08:43:04;;;;;;;53.25;23.42;;;2.40;99.90;;;;;;5030715;28;20034;-58
2021/12/23 08:45:32;;;;;;;60.63;27.88;;;2.40;99.90;;;;;;5031094;28;20045;-58
2021/12/23 08:47:58;;;;;;;60.30;26.85;;;2.50;99.90;;;;;;5030802;28;20079;-58
2021/12/23 08:50:29;;;;;;;58.97;27.58;;;2.50;99.90;;;;;;5030468;28;20026;-58
2021/12/23 08:52:56;;;;;;;52.00;23.88;;;2.50;99.90;;;;;;5030532;28;20121;-58
2021/12/23 08:55:24;;;;;;;52.58;26.52;;;2.60;99.90;;;;;;5029229;28;20391;-58
2021/12/23 08:57:50;;;;;;;54.88;27.88;;;2.60;99.90;;;;;;5018294;28;20773;-58
2021/12/23 09:00:18;;;;;;;53.70;26.80;;;2.70;99.90;;;;;;5028937;28;20129;-58
2021/12/23 09:02:46;;;;;;;54.05;24.00;;;2.70;99.90;;;;;;5012189;28;20578;-58
2021/12/23 09:05:12;;;;;;;49.92;21.13;;;2.70;99.90;;;;;;5012057;28;20022;-58
2021/12/23 09:07:37;;;;;;;56.50;25.25;;;2.80;99.90;;;;;;5010564;28;20431;-58
2021/12/23 09:10:05;;;;;;;54.67;26.25;;;2.80;99.90;;;;;;5018366;28;20029;-58
2021/12/23 09:12:31;;;;;;;55.22;27.75;;;2.80;99.90;;;;;;5028009;28;20030;-58
2021/12/23 09:14:57;;;;;;;56.17;25.98;;;2.70;99.90;;;;;;5028599;28;20079;-58
2021/12/23 09:17:23;;;;;;;52.30;26.02;;;2.80;99.90;;;;;;5018406;28;20021;-58
2021/12/23 09:19:48;;;;;;;52.58;25.88;;;2.70;99.90;;;;;;5010272;28;20081;-58
2021/12/23 09:22:14;;;;;;;55.80;26.60;;;2.70;99.90;;;;;;5027883;28;20017;-58
2021/12/23 09:24:45;;;;;;;54.05;25.35;;;2.80;99.90;;;;;;5028746;28;20022;-58
2021/12/23 09:32:52;;;;;;;51.75;25.15;;;2.90;99.90;;;;;;5022527;28;20120;-58
2021/12/23 09:35:20;;;;;;;51.60;23.40;;;2.90;99.90;;;;;;5015002;28;20045;-58
2021/12/23 09:37:46;;;;;;;51.28;23.63;;;3.00;99.90;;;;;;5024349;28;20439;-58
2021/12/23 09:40:12;;;;;;;49.50;22.65;;;3.10;99.90;;;;;;5024221;28;20060;-58
2021/12/23 09:42:39;;;;;;;50.40;23.92;;;3.20;99.90;;;;;;5016507;28;20524;-58
2021/12/23 09:45:10;;;;;;;53.47;25.55;;;3.20;99.90;;;;;;5028282;28;20482;-58
2021/12/23 09:47:41;;;;;;;47.53;24.65;;;3.30;99.90;;;;;;5025783;28;20072;-58
2021/12/23 09:50:10;;;;;;;44.53;19.45;;;3.40;99.90;;;;;;5033694;28;20075;-58
2021/12/23 09:52:42;;;;;;;46.50;22.65;;;3.50;99.90;;;;;;5033394;28;20759;-58
2021/12/23 09:55:10;;;;;;;50.20;25.05;;;3.50;99.90;;;;;;5041091;28;20033;-58
2021/12/23 09:57:35;;;;;;;46.28;21.95;;;3.50;99.90;;;;;;5038415;28;20075;-58
2021/12/23 10:00:04;;;;;;;44.70;21.48;;;3.60;99.90;;;;;;5027842;28;20038;-58
2021/12/23 10:02:29;;;;;;;44.53;21.55;;;3.60;99.90;;;;;;5030628;28;20445;-58
2021/12/23 10:04:55;;;;;;;46.40;22.80;;;3.70;99.90;;;;;;5022571;28;20037;-58
2021/12/23 10:07:21;;;;;;;45.35;21.55;;;3.70;99.90;;;;;;5019564;28;20057;-58
2021/12/23 10:10:06;;;;;;;48.70;24.27;;;3.70;99.90;;;;;;5031442;28;20026;-58
2021/12/23 10:32:13;;;;;;;48.63;24.23;;;4.00;99.90;;;;;;5021352;28;20035;-58
2021/12/23 10:37:17;;;;;;;44.75;22.58;;;4.20;99.90;;;;;;5030170;28;20414;-58
2021/12/23 10:40:02;;;;;;;59.08;27.15;;;4.20;99.90;;;;;;5027397;28;20025;-58
2021/12/23 10:42:29;;;;;;;47.33;24.08;;;4.20;99.90;;;;;;5021545;28;20111;-58
2021/12/23 10:44:58;;;;;;;45.60;23.00;;;4.30;99.90;;;;;;5028396;28;20487;-58
2021/12/23 10:47:50;;;;;;;39.97;21.75;;;4.40;99.90;;;;;;5029707;28;20040;-58
2021/12/23 10:50:45;;;;;;;47.45;24.38;;;4.40;99.90;;;;;;5013541;28;20061;-58
2021/12/23 10:53:39;;;;;;;43.75;23.83;;;4.40;99.90;;;;;;5022712;28;20061;-58
2021/12/23 10:59:07;;;;;;;45.70;25.00;;;4.40;99.90;;;;;;5031848;28;20111;-58
2021/12/23 11:01:36;;;;;;;50.13;25.13;;;4.40;99.90;;;;;;5028774;28;20029;-58
2021/12/23 11:04:05;;;;;;;47.25;23.90;;;4.50;99.90;;;;;;5021145;28;20037;-58
2021/12/23 11:06:45;;;;;;;48.40;22.25;;;4.50;99.90;;;;;;5022847;28;20042;-58
2021/12/23 11:41:18;;;;;;;37.08;20.83;;;6.00;99.90;;;;;;5029466;28;20033;-58
2021/12/23 11:43:52;;;;;;;42.50;23.40;;;5.90;99.90;;;;;;5047573;28;20550;-58
2021/12/23 11:46:23;;;;;;;39.33;23.92;;;5.50;99.90;;;;;;5027090;28;20053;-58
2021/12/23 11:48:54;;;;;;;42.13;23.38;;;5.20;99.90;;;;;;5028162;28;20083;-58
2021/12/23 11:51:32;;;;;;;47.17;23.27;;;5.10;99.90;;;;;;5030942;28;20477;-59
2021/12/23 11:54:01;;;;;;;47.72;24.48;;;4.90;99.90;;;;;;5031106;28;20030;-59
2021/12/23 11:56:27;;;;;;;39.30;22.20;;;4.80;99.90;;;;;;5020093;28;20033;-59
2021/12/23 11:58:57;;;;;;;40.88;18.52;;;4.70;99.90;;;;;;5031064;28;20017;-59
2021/12/23 12:01:28;;;;;;;45.97;24.35;;;4.70;99.90;;;;;;5029917;28;20144;-59
2021/12/23 12:04:03;;;;;;;50.78;26.85;;;4.70;99.90;;;;;;5027263;28;20051;-59
2021/12/23 12:06:43;;;;;;;47.83;24.58;;;4.70;99.90;;;;;;5014171;28;20033;-59
2021/12/23 12:09:31;;;;;;;39.10;20.50;;;4.80;99.90;;;;;;5030341;28;20037;-59
2021/12/23 12:11:59;;;;;;;47.75;25.85;;;4.80;99.90;;;;;;5023113;28;20478;-59
2021/12/23 12:14:40;;;;;;;42.30;20.63;;;4.80;99.90;;;;;;5030782;28;20553;-59
2021/12/23 12:17:24;;;;;;;37.13;19.33;;;4.90;99.90;;;;;;5030062;28;20029;-59
2021/12/23 12:19:57;;;;;;;43.15;22.02;;;4.90;99.90;;;;;;5029385;28;20033;-59
2021/12/23 12:22:44;;;;;;;49.78;25.48;;;5.00;99.90;;;;;;5044808;28;20037;-59
2021/12/23 12:25:26;;;;;;;44.92;24.95;;;5.00;99.90;;;;;;5028227;28;20049;-59
2021/12/23 12:28:12;;;;;;;44.08;23.00;;;5.10;99.90;;;;;;5017168;28;20029;-59
2021/12/23 12:30:47;;;;;;;39.15;19.45;;;5.20;99.90;;;;;;5012061;28;20025;-59
2021/12/23 12:33:19;;;;;;;48.00;24.92;;;5.30;99.90;;;;;;5010976;28;20021;-59
2021/12/23 12:36:06;;;;;;;45.53;21.97;;;5.30;99.90;;;;;;5011520;28;20458;-59
2021/12/23 12:38:57;;;;;;;52.92;25.13;;;5.10;99.90;;;;;;5011586;28;20621;-59
2021/12/23 12:41:28;;;;;;;50.90;26.40;;;5.00;99.90;;;;;;5015206;28;20539;-59
2021/12/23 12:44:27;;;;;;;49.45;23.40;;;4.90;99.90;;;;;;5019629;28;20029;-59
2021/12/23 12:47:12;;;;;;;48.47;24.67;;;5.00;99.90;;;;;;5028234;28;20117;-59
2021/12/23 12:49:44;;;;;;;48.58;23.25;;;4.90;99.90;;;;;;5030920;28;20548;-59
2021/12/23 12:52:34;;;;;;;51.47;26.55;;;4.80;99.90;;;;;;5029312;28;20474;-59
2021/12/23 12:55:00;;;;;;;46.30;21.33;;;4.70;99.90;;;;;;5026619;28;20112;-59
2021/12/23 12:57:31;;;;;;;51.00;25.17;;;4.80;99.90;;;;;;5014607;28;20570;-59
2021/12/23 13:00:13;;;;;;;57.83;25.05;;;4.70;99.90;;;;;;5030472;28;20026;-59
2021/12/23 13:02:39;;;;;;;53.95;28.13;;;4.70;99.90;;;;;;5028057;28;20080;-59
2021/12/23 13:05:11;;;;;;;58.15;25.77;;;4.70;99.90;;;;;;5029008;28;20064;-58
2021/12/23 13:07:39;;;;;;;45.08;20.38;;;4.60;99.90;;;;;;5012663;28;20448;-59
2021/12/23 13:10:17;;;;;;;67.53;30.33;;;4.50;99.90;;;;;;5026168;28;20121;-58
2021/12/23 13:12:48;;;;;;;63.33;28.92;;;4.40;99.90;;;;;;5012852;28;20026;-59
2021/12/23 13:15:24;;;;;;;66.85;30.50;;;4.40;99.90;;;;;;5011238;28;20082;-59
2021/12/23 13:17:55;;;;;;;57.38;24.70;;;4.40;99.90;;;;;;5044007;28;20036;-59
2021/12/23 13:20:40;;;;;;;60.78;24.65;;;4.30;99.90;;;;;;5029886;28;20424;-58
2021/12/23 13:23:13;;;;;;;64.82;26.58;;;4.30;99.90;;;;;;5030013;28;20469;-59
2021/12/23 13:25:52;;;;;;;72.07;33.13;;;4.20;99.90;;;;;;5032617;28;20045;-59
2021/12/23 13:28:27;;;;;;;64.55;29.05;;;4.30;99.90;;;;;;5032600;28;20111;-59
2021/12/23 13:30:53;;;;;;;65.78;26.17;;;4.30;99.90;;;;;;5031395;28;20108;-59
2021/12/23 13:33:19;;;;;;;74.00;33.38;;;4.30;99.90;;;;;;5029616;28;20025;-59
2021/12/23 13:35:45;;;;;;;67.47;29.63;;;4.30;99.90;;;;;;5030926;28;20018;-59
2021/12/23 13:38:27;;;;;;;68.78;31.25;;;4.30;99.90;;;;;;5014335;28;20109;-59
2021/12/23 13:40:52;;;;;;;70.75;32.47;;;4.30;99.90;;;;;;5030368;28;20030;-59
2021/12/23 13:43:29;;;;;;;66.88;28.70;;;4.30;99.90;;;;;;5017326;28;20033;-59
2021/12/23 13:46:06;;;;;;;83.60;33.75;;;4.20;99.90;;;;;;5021889;28;20049;-59
2021/12/23 13:48:45;;;;;;;64.68;29.70;;;4.20;99.90;;;;;;5019647;28;20451;-59
2021/12/23 13:51:13;;;;;;;60.97;25.95;;;4.20;99.90;;;;;;5026980;28;20025;-59